createdAt,value
2022-12-19T00:01:38.861Z,-11.16
2022-12-19T00:04:11.445Z,-11.16
2022-12-19T00:06:43.872Z,-11.13
2022-12-19T00:09:14.221Z,-11.19
2022-12-19T00:11:43.200Z,-11.31
2022-12-19T00:14:12.684Z,-11.10
2022-12-19T00:16:41.353Z,-11.24
2022-12-19T00:19:12.255Z,-11.03
2022-12-19T00:21:40.847Z,-11.14
2022-12-19T00:24:20.628Z,-10.95
2022-12-19T00:26:51.033Z,-11.15
2022-12-19T00:29:22.596Z,-11.02
2022-12-19T00:31:53.398Z,-11.00
2022-12-19T00:34:21.923Z,-10.85
2022-12-19T00:36:50.650Z,-10.80
2022-12-19T00:39:19.383Z,-10.84
2022-12-19T00:41:48.139Z,-10.81
2022-12-19T00:44:17.107Z,-10.86
2022-12-19T00:46:51.514Z,-10.68
2022-12-19T00:49:22.125Z,-10.80
2022-12-19T00:51:50.809Z,-10.60
2022-12-19T00:54:19.645Z,-10.64
2022-12-19T00:56:49.094Z,-10.61
2022-12-19T00:59:18.922Z,-10.63
2022-12-19T01:01:58.276Z,-10.53
2022-12-19T01:04:29.151Z,-10.58
2022-12-19T01:07:02.290Z,-10.70
2022-12-19T01:09:36.298Z,-10.34
2022-12-19T01:12:25.118Z,-10.59
2022-12-19T01:15:03.822Z,-10.25
2022-12-19T01:17:43.980Z,-10.82
2022-12-19T01:20:15.964Z,-10.27
2022-12-19T01:22:45.749Z,-10.12
2022-12-19T01:25:16.127Z,-10.23
2022-12-19T01:27:44.703Z,-10.15
2022-12-19T01:30:13.981Z,-10.15
2022-12-19T01:32:44.148Z,-10.17
2022-12-19T01:35:21.327Z,-10.17
2022-12-19T01:37:58.763Z,-9.87
2022-12-19T01:40:37.838Z,-9.92
2022-12-19T01:43:07.289Z,-9.86
2022-12-19T01:45:43.861Z,-9.76
2022-12-19T01:48:44.062Z,-9.71
2022-12-19T01:51:20.759Z,-9.75
2022-12-19T01:53:58.548Z,-9.61
2022-12-19T01:56:37.892Z,-9.59
2022-12-19T01:59:11.599Z,-9.68
2022-12-19T02:01:51.885Z,-10.12
2022-12-19T02:04:29.482Z,-9.49
2022-12-19T02:07:15.609Z,-9.38
2022-12-19T02:09:52.469Z,-9.38
2022-12-19T02:12:38.851Z,-9.98
2022-12-19T02:15:11.108Z,-9.33
2022-12-19T02:17:51.345Z,-9.13
2022-12-19T02:20:46.783Z,-9.06
2022-12-19T02:23:18.157Z,-9.03
2022-12-19T02:26:20.764Z,-9.00
2022-12-19T02:29:02.618Z,-8.96
2022-12-19T02:31:37.627Z,-8.96
2022-12-19T02:34:24.452Z,-9.01
2022-12-19T02:37:12.125Z,-9.01
2022-12-19T02:39:49.921Z,-8.72
2022-12-19T02:42:27.720Z,-8.81
2022-12-19T02:45:04.219Z,-8.88
2022-12-19T02:47:35.335Z,-8.69
2022-12-19T02:50:06.507Z,-8.57
2022-12-19T02:52:35.612Z,-8.37
2022-12-19T02:55:10.709Z,-8.36
2022-12-19T02:58:10.703Z,-8.23
2022-12-19T03:01:11.412Z,-8.39
2022-12-19T03:04:19.633Z,-8.24
2022-12-19T03:07:06.552Z,-8.16
2022-12-19T03:09:57.061Z,-8.08
2022-12-19T03:12:31.701Z,-8.02
2022-12-19T03:15:02.285Z,-7.94
2022-12-19T03:17:37.315Z,-7.83
2022-12-19T03:20:12.124Z,-7.76
2022-12-19T03:22:40.734Z,-7.57
2022-12-19T03:25:10.383Z,-7.77
2022-12-19T03:27:40.962Z,-7.49
2022-12-19T03:30:13.448Z,-7.48
2022-12-19T03:32:45.393Z,-7.35
2022-12-19T03:35:23.493Z,-7.24
2022-12-19T03:37:59.872Z,-7.20
2022-12-19T03:40:33.993Z,-7.24
2022-12-19T03:43:11.257Z,-7.23
2022-12-19T03:46:11.178Z,-6.94
2022-12-19T03:48:50.172Z,-7.03
2022-12-19T03:51:28.412Z,-6.80
2022-12-19T03:54:08.731Z,-6.65
2022-12-19T03:56:58.621Z,-6.56
2022-12-19T04:00:08.300Z,-6.53
2022-12-19T04:02:50.747Z,-6.37
2022-12-19T04:05:26.170Z,-6.55
2022-12-19T04:08:02.151Z,-6.35
2022-12-19T04:10:31.340Z,-6.26
2022-12-19T04:13:24.407Z,-6.00
2022-12-19T04:16:04.871Z,-6.42
2022-12-19T04:18:35.764Z,-5.97
2022-12-19T04:21:30.807Z,-5.81
2022-12-19T04:24:06.975Z,-5.71
2022-12-19T04:26:37.530Z,-5.58
2022-12-19T04:29:08.747Z,-5.60
2022-12-19T04:31:38.627Z,-6.05
2022-12-19T04:34:07.499Z,-5.68
2022-12-19T04:36:36.285Z,-5.48
2022-12-19T04:39:05.269Z,-5.38
2022-12-19T04:41:34.231Z,-5.53
2022-12-19T04:44:02.797Z,-5.22
2022-12-19T04:46:31.711Z,-5.27
2022-12-19T04:49:00.476Z,-5.30
2022-12-19T04:51:29.248Z,-5.21
2022-12-19T04:53:58.315Z,-4.97
2022-12-19T04:56:26.891Z,-5.04
2022-12-19T04:59:00.295Z,-4.87
2022-12-19T05:01:29.072Z,-4.88
2022-12-19T05:04:04.098Z,-5.37
2022-12-19T05:06:33.573Z,-4.82
2022-12-19T05:09:02.515Z,-4.98
2022-12-19T05:11:31.175Z,-4.87
2022-12-19T05:14:00.654Z,-4.76
2022-12-19T05:16:29.648Z,-4.56
2022-12-19T05:18:58.466Z,-4.63
2022-12-19T05:21:27.256Z,-4.66
2022-12-19T05:23:56.055Z,-4.62
2022-12-19T05:26:25.056Z,-4.69
2022-12-19T05:28:54.063Z,-4.94
2022-12-19T05:31:23.110Z,-4.47
2022-12-19T05:33:52.459Z,-4.42
2022-12-19T05:36:21.182Z,-4.27
2022-12-19T05:38:52.164Z,-4.40
2022-12-19T05:41:21.845Z,-4.29
2022-12-19T05:43:52.742Z,-4.15
2022-12-19T05:46:22.465Z,-4.08
2022-12-19T05:48:51.549Z,-3.89
2022-12-19T05:51:21.532Z,-3.97
2022-12-19T05:53:50.374Z,-3.68
2022-12-19T05:56:21.277Z,-4.29
2022-12-19T05:58:50.885Z,-3.46
2022-12-19T06:01:22.779Z,-3.23
2022-12-19T06:03:52.541Z,-3.17
2022-12-19T06:06:26.220Z,-3.25
2022-12-19T06:09:00.263Z,-3.20
2022-12-19T06:11:29.136Z,-3.06
2022-12-19T06:13:58.128Z,-3.26
2022-12-19T06:16:26.968Z,-4.10
2022-12-19T06:18:55.851Z,-2.63
2022-12-19T06:21:25.368Z,-2.69
2022-12-19T06:23:55.549Z,-2.59
2022-12-19T06:26:24.546Z,-2.47
2022-12-19T06:28:54.142Z,-2.45
2022-12-19T06:31:25.660Z,-2.50
2022-12-19T06:33:56.034Z,-2.37
2022-12-19T06:36:30.159Z,-2.35
2022-12-19T06:38:59.213Z,-2.19
2022-12-19T06:41:47.077Z,-2.11
2022-12-19T06:44:18.004Z,-2.17
2022-12-19T06:46:49.633Z,-2.14
2022-12-19T06:49:18.369Z,-2.09
2022-12-19T06:51:47.781Z,-2.25
2022-12-19T06:54:16.760Z,-2.20
2022-12-19T06:56:45.658Z,-1.93
2022-12-19T06:59:16.652Z,-2.15
2022-12-19T07:02:13.011Z,-1.98
2022-12-19T07:04:47.260Z,-2.08
2022-12-19T07:07:15.969Z,-2.02
2022-12-19T07:09:44.893Z,-2.08
2022-12-19T07:12:15.759Z,-2.01
2022-12-19T07:14:53.016Z,-2.37
2022-12-19T07:17:25.083Z,-1.82
2022-12-19T07:19:59.221Z,-2.29
2022-12-19T07:22:34.177Z,-2.02
2022-12-19T07:25:04.936Z,-2.21
2022-12-19T07:27:36.069Z,-1.85
2022-12-19T07:30:06.769Z,-1.85
2022-12-19T07:32:36.403Z,-1.93
2022-12-19T07:35:05.520Z,-2.23
2022-12-19T07:37:34.094Z,-1.69
2022-12-19T07:40:02.812Z,-1.61
2022-12-19T07:42:32.871Z,-1.86
2022-12-19T07:45:02.090Z,-1.84
2022-12-19T07:47:30.817Z,-1.80
2022-12-19T07:49:59.758Z,-1.61
2022-12-19T07:52:28.798Z,-1.74
2022-12-19T07:54:57.272Z,-1.89
2022-12-19T07:57:25.975Z,-1.53
2022-12-19T07:59:54.826Z,-1.80
2022-12-19T08:02:23.733Z,-2.04
2022-12-19T08:04:53.693Z,-1.65
2022-12-19T08:07:22.470Z,-1.53
2022-12-19T08:09:51.109Z,-1.74
2022-12-19T08:12:19.875Z,-1.60
2022-12-19T08:14:52.794Z,-1.75
2022-12-19T08:17:24.625Z,-1.75
2022-12-19T08:19:55.716Z,-1.63
2022-12-19T08:22:24.313Z,-1.43
2022-12-19T08:24:53.347Z,-1.43
2022-12-19T08:27:22.133Z,-1.57
2022-12-19T08:29:53.479Z,-1.42
2022-12-19T08:32:22.542Z,-1.27
2022-12-19T08:34:51.499Z,-1.39
2022-12-19T08:37:20.089Z,-1.45
2022-12-19T08:39:51.319Z,-1.43
2022-12-19T08:42:20.213Z,-1.36
2022-12-19T08:44:48.848Z,-1.29
2022-12-19T08:47:17.885Z,-1.14
2022-12-19T08:49:46.543Z,-1.14
2022-12-19T08:52:17.725Z,-1.08
2022-12-19T08:54:46.727Z,-1.57
2022-12-19T08:57:16.152Z,-1.34
2022-12-19T08:59:45.305Z,-1.10
2022-12-19T09:02:17.018Z,-1.08
2022-12-19T09:05:59.965Z,-1.07
2022-12-19T09:07:37.864Z,-1.03
2022-12-19T09:10:08.725Z,-1.55
2022-12-19T09:12:40.622Z,-1.18
2022-12-19T09:15:12.085Z,-1.03
2022-12-19T09:17:41.109Z,-1.05
2022-12-19T09:20:19.647Z,-1.16
2022-12-19T09:22:51.675Z,-1.19
2022-12-19T09:25:20.480Z,-1.28
2022-12-19T09:28:25.964Z,-1.39
2022-12-19T09:30:38.127Z,-1.46
2022-12-19T09:33:09.263Z,-1.31
2022-12-19T09:35:38.463Z,-1.37
2022-12-19T09:38:07.383Z,-1.24
2022-12-19T09:40:58.287Z,-1.79
2022-12-19T09:43:45.365Z,-1.32
2022-12-19T09:46:21.578Z,-1.33
2022-12-19T09:48:55.471Z,-1.37
2022-12-19T09:51:36.555Z,-1.36
2022-12-19T09:54:21.476Z,-1.54
2022-12-19T09:56:54.845Z,-1.94
2022-12-19T09:59:49.722Z,-1.47
2022-12-19T10:02:40.950Z,-1.58
2022-12-19T10:05:42.894Z,-1.54
2022-12-19T10:08:19.317Z,-1.74
2022-12-19T10:12:36.465Z,-1.57
2022-12-19T10:13:59.359Z,-1.63
2022-12-19T10:16:39.977Z,-1.64
2022-12-19T10:19:16.217Z,-1.77
2022-12-19T10:22:18.182Z,-1.70
2022-12-19T10:25:00.535Z,-1.75
2022-12-19T10:28:00.019Z,-1.80
2022-12-19T10:30:34.255Z,-1.87
2022-12-19T10:33:30.418Z,-1.87
2022-12-19T10:36:03.073Z,-2.10
2022-12-19T10:38:50.307Z,-2.02
2022-12-19T10:41:27.899Z,-1.90
2022-12-19T10:44:06.329Z,-1.83
2022-12-19T10:46:51.519Z,-2.38
2022-12-19T10:49:31.765Z,-1.98
2022-12-19T10:52:05.540Z,-2.44
2022-12-19T10:54:40.243Z,-1.99
2022-12-19T10:57:23.998Z,-2.05
2022-12-19T11:00:04.831Z,-2.21
2022-12-19T11:02:54.326Z,-2.11
2022-12-19T11:05:25.641Z,-2.15
2022-12-19T11:08:32.258Z,-2.28
2022-12-19T11:13:17.636Z,-2.18
2022-12-19T11:19:23.208Z,-2.23
2022-12-19T11:21:53.445Z,-2.34
2022-12-19T11:29:17.678Z,-2.15
2022-12-19T11:29:33.110Z,-2.16
2022-12-19T11:29:36.581Z,-2.47
2022-12-19T11:30:45.892Z,-2.31
2022-12-19T11:34:25.125Z,-2.32
2022-12-19T11:37:18.237Z,-2.15
2022-12-19T11:39:57.568Z,-2.21
2022-12-19T11:42:26.299Z,-2.10
2022-12-19T11:45:08.492Z,-2.33
2022-12-19T11:47:46.667Z,-2.07
2022-12-19T11:50:23.782Z,-2.37
2022-12-19T11:53:19.177Z,-2.09
2022-12-19T11:55:56.928Z,-2.30
2022-12-19T11:58:30.450Z,-2.11
2022-12-19T12:01:42.562Z,-2.21
2022-12-19T12:04:42.542Z,-2.14
2022-12-19T12:07:52.064Z,-2.19
2022-12-19T12:13:33.016Z,-2.22
2022-12-19T12:21:57.678Z,-2.26
2022-12-19T12:29:39.833Z,-2.40
2022-12-19T12:31:10.129Z,-2.24
2022-12-19T12:31:14.620Z,-2.22
2022-12-19T12:31:49.898Z,-2.32
2022-12-19T12:32:04.343Z,-2.21
2022-12-19T12:35:46.392Z,-2.28
2022-12-19T12:42:06.557Z,-2.29
2022-12-19T12:44:46.114Z,-2.49
2022-12-19T12:47:46.009Z,-2.32
2022-12-19T12:50:19.120Z,-2.39
2022-12-19T12:52:52.302Z,-2.46
2022-12-19T12:55:36.284Z,-2.47
2022-12-19T12:58:10.585Z,-2.56
2022-12-19T13:01:10.282Z,-2.32
2022-12-19T13:03:43.387Z,-2.43
2022-12-19T13:06:34.367Z,-2.28
2022-12-19T13:09:21.410Z,-2.41
2022-12-19T13:12:50.661Z,-2.27
2022-12-19T13:15:28.861Z,-2.24
2022-12-19T13:17:58.115Z,-2.43
2022-12-19T13:20:27.777Z,-2.22
2022-12-19T13:22:59.606Z,-2.21
2022-12-19T13:25:29.188Z,-2.18
2022-12-19T13:28:22.799Z,-2.19
2022-12-19T13:31:16.629Z,-2.18
2022-12-19T13:33:55.959Z,-2.16
2022-12-19T13:39:54.399Z,-2.17
2022-12-19T13:40:12.373Z,-2.23
2022-12-19T13:43:17.691Z,-2.20
2022-12-19T13:45:54.005Z,-2.29
2022-12-19T13:48:37.262Z,-2.33
2022-12-19T13:51:12.147Z,-2.28
2022-12-19T13:53:43.724Z,-2.22
2022-12-19T13:56:18.742Z,-2.31
2022-12-19T13:59:03.712Z,-2.18
2022-12-19T14:01:38.354Z,-2.35
2022-12-19T14:04:09.329Z,-2.17
2022-12-19T14:06:46.661Z,-2.14
2022-12-19T14:11:29.807Z,-2.74
2022-12-19T14:13:43.659Z,-2.65
2022-12-19T14:15:51.893Z,-2.11
2022-12-19T14:18:44.720Z,-2.18
2022-12-19T14:22:04.417Z,-2.62
2022-12-19T14:24:25.900Z,-2.19
2022-12-19T14:28:18.425Z,-2.41
2022-12-19T14:30:30.510Z,-2.31
2022-12-19T14:33:47.343Z,-2.26
2022-12-19T14:36:06.919Z,-2.82
2022-12-19T14:39:21.193Z,-2.21
2022-12-19T14:41:49.359Z,-2.21
2022-12-19T14:52:25.933Z,-2.84
2022-12-19T14:52:34.499Z,-2.43
2022-12-19T14:54:05.765Z,-2.36
2022-12-19T14:54:37.410Z,-2.52
2022-12-19T14:56:37.539Z,-2.32
2022-12-19T15:02:03.245Z,-2.27
2022-12-19T15:04:56.205Z,-2.52
2022-12-19T15:07:31.696Z,-2.34
2022-12-19T15:11:05.008Z,-2.86
2022-12-19T15:14:55.374Z,-2.50
2022-12-19T15:16:30.118Z,-2.45
2022-12-19T15:19:01.251Z,-2.46
2022-12-19T15:21:31.936Z,-2.37
2022-12-19T15:24:00.584Z,-2.44
2022-12-19T15:26:35.713Z,-2.22
2022-12-19T15:29:15.450Z,-2.38
2022-12-19T15:31:49.424Z,-2.47
2022-12-19T15:34:35.399Z,-2.99
2022-12-19T15:37:05.010Z,-2.71
2022-12-19T15:39:34.019Z,-2.27
2022-12-19T15:42:03.410Z,-2.37
2022-12-19T15:44:40.993Z,-2.32
2022-12-19T15:47:32.536Z,-2.22
2022-12-19T15:50:08.542Z,-2.41
2022-12-19T15:52:37.603Z,-2.58
2022-12-19T15:55:07.170Z,-2.46
2022-12-19T15:57:39.269Z,-2.36
2022-12-19T16:00:19.355Z,-2.74
2022-12-19T16:05:37.787Z,-2.60
2022-12-19T16:08:21.003Z,-2.27
2022-12-19T16:11:01.163Z,-2.26
2022-12-19T16:13:35.500Z,-2.41
2022-12-19T16:16:13.021Z,-2.80
2022-12-19T16:18:46.097Z,-2.29
2022-12-19T16:21:20.683Z,-2.25
2022-12-19T16:23:51.073Z,-2.37
2022-12-19T16:26:41.270Z,-2.22
2022-12-19T16:29:29.272Z,-2.38
2022-12-19T16:31:58.557Z,-2.39
2022-12-19T16:34:28.065Z,-2.20
2022-12-19T16:36:58.638Z,-2.24
2022-12-19T16:39:27.947Z,-2.30
2022-12-19T16:41:57.588Z,-2.25
2022-12-19T16:44:26.333Z,-2.23
2022-12-19T16:46:55.210Z,-2.35
2022-12-19T16:49:24.331Z,-2.20
2022-12-19T16:51:53.875Z,-2.16
2022-12-19T16:54:23.444Z,-2.31
2022-12-19T16:56:55.169Z,-2.28
2022-12-19T16:59:28.344Z,-2.08
2022-12-19T17:01:58.211Z,-2.07
2022-12-19T17:04:28.461Z,-2.19
2022-12-19T17:06:57.657Z,-2.67
2022-12-19T17:09:26.940Z,-2.11
2022-12-19T17:12:01.138Z,-2.07
2022-12-19T17:14:35.614Z,-2.14
2022-12-19T17:17:04.708Z,-2.68
2022-12-19T17:19:42.571Z,-2.38
2022-12-19T17:22:18.912Z,-2.69
2022-12-19T17:24:49.544Z,-2.24
2022-12-19T17:27:19.896Z,-2.24
2022-12-19T17:29:52.210Z,-2.36
2022-12-19T17:32:24.551Z,-2.14
2022-12-19T17:34:54.371Z,-2.40
2022-12-19T17:37:26.550Z,-2.15
2022-12-19T17:39:55.788Z,-2.09
2022-12-19T17:42:28.742Z,-2.26
2022-12-19T17:45:00.159Z,-2.37
2022-12-19T17:47:30.584Z,-2.38
2022-12-19T17:50:00.284Z,-2.37
2022-12-19T17:52:30.374Z,-2.46
2022-12-19T17:54:58.993Z,-2.39
2022-12-19T17:57:27.978Z,-3.45
2022-12-19T17:59:56.799Z,-2.31
2022-12-19T18:02:27.725Z,-2.30
2022-12-19T18:04:59.222Z,-2.38
2022-12-19T18:07:28.143Z,-2.79
2022-12-19T18:09:57.485Z,-2.83
2022-12-19T18:12:27.260Z,-2.45
2022-12-19T18:14:56.036Z,-2.47
2022-12-19T18:17:26.982Z,-2.79
2022-12-19T18:19:56.354Z,-2.60
2022-12-19T18:22:25.543Z,-2.59
2022-12-19T18:24:54.961Z,-2.48
2022-12-19T18:27:23.922Z,-2.46
2022-12-19T18:29:52.763Z,-2.66
2022-12-19T18:32:22.439Z,-2.54
2022-12-19T18:34:54.586Z,-2.60
2022-12-19T18:37:23.651Z,-3.00
2022-12-19T18:39:56.301Z,-2.49
2022-12-19T18:42:24.974Z,-2.59
2022-12-19T18:44:53.736Z,-2.80
2022-12-19T18:47:24.340Z,-2.82
2022-12-19T18:49:53.493Z,-2.60
2022-12-19T18:52:22.273Z,-2.59
2022-12-19T18:54:51.077Z,-2.84
2022-12-19T18:57:19.674Z,-2.67
2022-12-19T18:59:49.325Z,-2.63
2022-12-19T19:02:28.836Z,-2.67
2022-12-19T19:04:57.724Z,-2.89
2022-12-19T19:07:26.690Z,-2.88
2022-12-19T19:09:55.807Z,-2.82
2022-12-19T19:12:44.831Z,-2.77
2022-12-19T19:15:13.486Z,-2.76
2022-12-19T19:17:43.043Z,-2.68
2022-12-19T19:20:12.337Z,-2.62
2022-12-19T19:22:41.187Z,-2.70
2022-12-19T19:25:10.507Z,-2.74
2022-12-19T19:27:40.730Z,-2.79
2022-12-19T19:30:11.884Z,-2.71
2022-12-19T19:32:53.130Z,-2.72
2022-12-19T19:35:22.671Z,-2.53
2022-12-19T19:37:57.205Z,-2.74
2022-12-19T19:40:25.884Z,-2.70
2022-12-19T19:42:54.967Z,-2.44
2022-12-19T19:45:24.304Z,-2.48
2022-12-19T19:47:56.226Z,-2.67
2022-12-19T19:50:25.518Z,-2.43
2022-12-19T19:52:54.939Z,-2.46
2022-12-19T19:55:24.725Z,-2.62
2022-12-19T19:57:53.980Z,-2.41
2022-12-19T20:00:23.603Z,-2.44
2022-12-19T20:02:53.646Z,-2.43
2022-12-19T20:05:22.720Z,-2.56
2022-12-19T20:07:51.758Z,-2.47
2022-12-19T20:10:20.851Z,-2.41
2022-12-19T20:12:49.520Z,-2.21
2022-12-19T20:15:18.661Z,-2.39
2022-12-19T20:17:47.589Z,-2.33
2022-12-19T20:20:16.660Z,-2.15
2022-12-19T20:22:45.367Z,-2.19
2022-12-19T20:25:14.193Z,-2.27
2022-12-19T20:27:42.899Z,-2.24
2022-12-19T20:30:12.669Z,-2.11
2022-12-19T20:32:41.259Z,-2.28
2022-12-19T20:35:14.548Z,-2.21
2022-12-19T20:37:43.980Z,-2.41
2022-12-19T20:40:13.661Z,-2.25
2022-12-19T20:42:42.689Z,-2.00
2022-12-19T20:45:11.429Z,-2.18
2022-12-19T20:47:40.241Z,-2.08
2022-12-19T20:50:09.535Z,-2.33
2022-12-19T20:52:38.567Z,-1.96
2022-12-19T20:55:10.628Z,-1.99
2022-12-19T20:57:39.579Z,-2.23
2022-12-19T21:00:09.576Z,-2.18
2022-12-19T21:03:00.634Z,-2.06
2022-12-19T21:05:27.885Z,-1.99
2022-12-19T21:07:59.166Z,-2.08
2022-12-19T21:10:27.802Z,-2.32
2022-12-19T21:12:56.925Z,-2.20
2022-12-19T21:15:26.025Z,-2.03
2022-12-19T21:17:54.679Z,-2.38
2022-12-19T21:20:23.443Z,-2.17
2022-12-19T21:22:52.143Z,-2.21
2022-12-19T21:25:21.227Z,-2.17
2022-12-19T21:27:49.999Z,-2.17
2022-12-19T21:30:19.691Z,-2.14
2022-12-19T21:32:48.559Z,-2.30
2022-12-19T21:35:17.217Z,-2.16
2022-12-19T21:37:50.706Z,-2.22
2022-12-19T21:40:21.030Z,-2.11
2022-12-19T21:42:49.778Z,-2.31
2022-12-19T21:45:18.862Z,-2.20
2022-12-19T21:47:47.815Z,-2.36
2022-12-19T21:50:16.871Z,-2.19
2022-12-19T21:52:45.945Z,-2.46
2022-12-19T21:55:14.560Z,-2.32
2022-12-19T21:57:44.028Z,-2.21
2022-12-19T22:00:14.503Z,-2.76
2022-12-19T22:03:01.525Z,-2.27
2022-12-19T22:05:32.220Z,-2.38
2022-12-19T22:08:01.573Z,-2.71
2022-12-19T22:10:31.356Z,-2.69
2022-12-19T22:13:00.499Z,-2.33
2022-12-19T22:15:29.260Z,-2.46
2022-12-19T22:17:57.702Z,-2.32
2022-12-19T22:20:26.420Z,-2.68
2022-12-19T22:22:55.314Z,-2.37
2022-12-19T22:25:24.071Z,-2.29
2022-12-19T22:27:55.924Z,-2.10
2022-12-19T22:30:24.457Z,-2.26
2022-12-19T22:32:53.248Z,-2.20
2022-12-19T22:35:21.714Z,-2.05
2022-12-19T22:37:50.493Z,-2.02
2022-12-19T22:40:19.824Z,-2.21
2022-12-19T22:42:49.232Z,-2.17
2022-12-19T22:45:18.670Z,-2.23
2022-12-19T22:47:48.480Z,-2.05
2022-12-19T22:50:17.109Z,-2.52
2022-12-19T22:52:46.319Z,-2.12
2022-12-19T22:55:15.020Z,-2.16
2022-12-19T22:57:43.874Z,-2.01
2022-12-19T23:00:15.395Z,-1.99
2022-12-19T23:02:46.552Z,-2.12
2022-12-19T23:05:15.536Z,-2.05
2022-12-19T23:07:44.972Z,-2.19
2022-12-19T23:10:13.938Z,-2.01
2022-12-19T23:12:42.706Z,-2.08
2022-12-19T23:15:11.821Z,-1.97
2022-12-19T23:17:40.618Z,-2.10
2022-12-19T23:20:09.958Z,-2.18
2022-12-19T23:22:38.859Z,-2.16
2022-12-19T23:25:08.322Z,-2.04
2022-12-19T23:27:37.100Z,-2.24
2022-12-19T23:30:12.272Z,-2.08
2022-12-19T23:32:44.230Z,-2.09
2022-12-19T23:35:18.486Z,-2.05
2022-12-19T23:37:47.995Z,-2.09
2022-12-19T23:40:16.968Z,-1.98
2022-12-19T23:42:45.808Z,-2.01
2022-12-19T23:45:14.627Z,-2.08
2022-12-19T23:47:43.522Z,-2.07
2022-12-19T23:50:12.951Z,-2.06
2022-12-19T23:52:42.679Z,-2.13
2022-12-19T23:55:12.239Z,-2.60
2022-12-19T23:57:41.056Z,-2.26
